Time;durP1;ratioP1;P1;durP2;ratioP2;P2;SDS_P1;SDS_P2;PMS_P1;PMS_P2;Temp;Humidity;BMP_temperature;BMP_pressure;BME280_temperature;BME280_humidity;BME280_pressure;Samples;Min_cycle;Max_cycle;Signal;HPM_P1;HPM_P2
2022/07/11 00:00:10;;;;;;;3.45;1.40;;;;;;;16.11;91.62;102262.22;1031071;28;20061;-78
2022/07/11 00:00:42;;;;;;;2.25;1.13;;;;;;;16.11;91.92;102264.91;1031307;28;20088;-78
2022/07/11 00:01:13;;;;;;;4.35;1.55;;;;;;;16.05;92.10;102269.31;1030943;28;20050;-78
2022/07/11 00:01:45;;;;;;;3.83;1.45;;;;;;;16.13;91.96;102276.28;1032020;28;20126;-78
2022/07/11 00:02:17;;;;;;;2.72;1.10;;;;;;;16.11;92.02;102262.22;1034518;28;20053;-78
2022/07/11 00:02:49;;;;;;;3.15;1.10;;;;;;;16.13;91.93;102265.53;1031226;28;20042;-77
2022/07/11 00:03:21;;;;;;;5.60;2.08;;;;;;;16.10;91.68;102260.56;1028950;28;20050;-78
2022/07/11 00:03:52;;;;;;;3.67;1.05;;;;;;;16.07;92.00;102266.41;1031658;28;20045;-78
2022/07/11 00:04:24;;;;;;;2.53;1.00;;;;;;;16.12;92.26;102263.03;1035481;28;20046;-78
2022/07/11 00:04:56;;;;;;;2.05;1.08;;;;;;;16.06;92.20;102256.69;1035443;28;20038;-78
2022/07/11 00:05:27;;;;;;;1.73;0.95;;;;;;;16.00;91.81;102254.88;1035283;28;20290;-78
2022/07/11 00:05:59;;;;;;;2.55;0.90;;;;;;;16.02;91.94;102263.53;1035428;28;20409;-78
2022/07/11 00:06:30;;;;;;;2.70;1.02;;;;;;;16.04;91.59;102261.47;1033275;28;20043;-78
2022/07/11 00:07:03;;;;;;;1.27;0.75;;;;;;;16.12;91.75;102261.19;1035121;28;20050;-78
2022/07/11 00:07:35;;;;;;;2.03;0.98;;;;;;;16.09;92.22;102258.94;1035254;28;20100;-78
2022/07/11 00:08:06;;;;;;;2.78;0.98;;;;;;;16.05;91.62;102257.72;1035642;28;20052;-77
2022/07/11 00:08:38;;;;;;;1.48;1.10;;;;;;;16.06;91.82;102259.38;1034419;28;20117;-78
2022/07/11 00:09:09;;;;;;;3.33;1.17;;;;;;;16.07;92.15;102269.09;1031641;28;20057;-78
2022/07/11 00:09:41;;;;;;;2.65;0.98;;;;;;;16.07;92.43;102269.91;1031291;28;20401;-78
2022/07/11 00:10:13;;;;;;;1.13;1.00;;;;;;;16.06;92.25;102270.13;1031206;28;20034;-78
2022/07/11 00:10:46;;;;;;;2.20;0.93;;;;;;;16.07;91.94;102259.16;1031280;28;20042;-78
2022/07/11 00:11:18;;;;;;;1.35;0.93;;;;;;;16.10;92.29;102260.56;1032148;28;20042;-78
2022/07/11 00:11:49;;;;;;;1.23;1.05;;;;;;;16.07;92.36;102271.78;1034322;28;20057;-78
2022/07/11 00:12:21;;;;;;;2.13;0.70;;;;;;;16.08;92.46;102271.56;1030561;28;20038;-78
2022/07/11 00:12:53;;;;;;;2.90;0.95;;;;;;;16.08;92.61;102268.03;1031498;28;20089;-78
2022/07/11 00:13:24;;;;;;;3.08;0.82;;;;;;;16.10;92.38;102271.34;1033201;28;20038;-78
2022/07/11 00:13:56;;;;;;;2.58;0.70;;;;;;;16.11;91.88;102266.78;1035368;28;20046;-78
2022/07/11 00:14:28;;;;;;;0.82;0.77;;;;;;;16.08;91.25;102263.50;1035329;28;20156;-78
2022/07/11 00:14:59;;;;;;;3.00;0.98;;;;;;;16.10;90.86;102263.28;1033346;28;20049;-78
2022/07/11 00:15:31;;;;;;;2.10;1.00;;;;;;;16.05;90.80;102263.09;1031266;28;20050;-78
2022/07/11 00:16:03;;;;;;;0.80;0.80;;;;;;;16.06;91.05;102270.94;1031012;28;21296;-78
2022/07/11 00:16:42;;;;;;;1.63;0.75;;;;;;;16.07;91.40;102255.66;1027185;28;20054;-78
2022/07/11 00:17:14;;;;;;;1.15;0.65;;;;;;;16.08;90.80;102262.66;1028580;28;20047;-78
2022/07/11 00:17:45;;;;;;;1.92;0.95;;;;;;;16.06;90.72;102260.19;1035410;28;20057;-78
2022/07/11 00:18:17;;;;;;;2.28;0.80;;;;;;;16.05;90.84;102258.56;1036782;28;20245;-78
2022/07/11 00:18:49;;;;;;;1.45;0.80;;;;;;;16.06;91.03;102267.44;1035387;28;20555;-78
2022/07/11 00:19:21;;;;;;;1.23;0.63;;;;;;;16.07;90.90;102256.47;1034870;28;20487;-78
2022/07/11 00:19:53;;;;;;;1.30;0.77;;;;;;;16.06;91.08;102260.19;1031207;28;20519;-78
2022/07/11 00:20:24;;;;;;;3.58;0.70;;;;;;;16.02;90.89;102263.53;1031070;28;20057;-78
2022/07/11 00:20:56;;;;;;;1.98;1.00;;;;;;;16.02;91.02;102261.69;1031479;28;20078;-77
2022/07/11 00:21:27;;;;;;;4.90;0.88;;;;;;;16.04;91.12;102266.84;1031431;28;20042;-78
2022/07/11 00:21:59;;;;;;;1.35;0.82;;;;;;;16.05;90.89;102258.56;1035281;28;20046;-77
2022/07/11 00:22:31;;;;;;;2.67;0.68;;;;;;;16.08;91.68;102257.28;1035008;28;20164;-78
2022/07/11 00:23:02;;;;;;;4.40;1.00;;;;;;;16.10;91.12;102257.06;1031481;28;20038;-78
2022/07/11 00:23:34;;;;;;;1.42;0.80;;;;;;;16.09;91.14;102258.94;1031266;28;20531;-78
2022/07/11 00:24:07;;;;;;;2.03;0.80;;;;;;;16.06;91.47;102259.38;1031414;28;20051;-78
2022/07/11 00:24:39;;;;;;;0.93;0.60;;;;;;;16.06;91.10;102259.38;1027075;28;20043;-77
2022/07/11 00:25:10;;;;;;;1.52;1.10;;;;;;;16.02;91.10;102266.22;1027783;28;20061;-78
2022/07/11 00:25:42;;;;;;;1.40;0.70;;;;;;;16.04;91.34;102261.47;1027545;28;20414;-78
2022/07/11 00:26:13;;;;;;;1.83;1.00;;;;;;;16.04;91.46;102261.47;1027507;28;20386;-78
2022/07/11 00:26:46;;;;;;;1.02;0.70;;;;;;;16.00;91.15;102254.88;1031077;28;20042;-78
2022/07/11 00:27:18;;;;;;;0.60;0.60;;;;;;;16.00;91.08;102261.06;1031963;28;20042;-78
2022/07/11 00:27:49;;;;;;;2.03;0.60;;;;;;;16.04;91.36;102254.22;1035434;28;20084;-78
2022/07/11 00:28:21;;;;;;;1.05;0.70;;;;;;;16.03;91.76;102260.63;1031145;28;20064;-78
2022/07/11 00:28:53;;;;;;;1.75;1.30;;;;;;;16.08;92.00;102257.28;1031012;28;20093;-78
2022/07/11 00:29:26;;;;;;;3.33;1.02;;;;;;;16.04;91.38;102256.91;1031348;28;20046;-78
2022/07/11 00:29:57;;;;;;;1.80;0.80;;;;;;;16.07;91.76;102255.66;1031138;28;20049;-78
2022/07/11 00:30:29;;;;;;;2.05;1.27;;;;;;;16.00;92.24;102260.25;1027739;28;20045;-78
2022/07/11 00:31:01;;;;;;;1.77;0.77;;;;;;;16.02;92.50;102258.16;1027415;28;20043;-78
2022/07/11 00:31:32;;;;;;;3.55;0.90;;;;;;;16.02;91.89;102258.16;1027223;28;20117;-78
2022/07/11 00:32:05;;;;;;;1.08;0.75;;;;;;;16.04;91.80;102261.47;1026993;28;20062;-77
2022/07/11 00:32:36;;;;;;;2.28;0.90;;;;;;;16.07;91.00;102256.47;1031144;28;20045;-77
2022/07/11 00:33:08;;;;;;;1.33;0.50;;;;;;;16.11;90.99;102251.47;1030917;28;20054;-78
2022/07/11 00:33:39;;;;;;;4.03;0.68;;;;;;;16.06;90.89;102254.00;1030782;28;20484;-77
2022/07/11 00:34:15;;;;;;;1.10;0.70;;;;;;;16.01;90.97;102261.91;1034558;28;20041;-77
2022/07/11 00:34:47;;;;;;;0.57;0.57;;;;;;;16.04;90.89;102261.47;1035404;28;20574;-78
2022/07/11 00:35:19;;;;;;;2.55;0.73;;;;;;;16.03;91.01;102262.50;1035441;28;20080;-78
2022/07/11 00:35:51;;;;;;;1.77;0.55;;;;;;;16.05;90.98;102263.09;1030982;28;20468;-78
2022/07/11 00:36:22;;;;;;;5.00;1.33;;;;;;;16.01;91.00;102267.28;1031038;28;20665;-78
2022/07/11 00:36:56;;;;;;;1.55;0.88;;;;;;;16.06;91.57;102259.38;1028936;28;20086;-78
2022/07/11 00:37:27;;;;;;;2.47;0.70;;;;;;;16.05;91.39;102269.31;1031036;28;20516;-78
2022/07/11 00:37:59;;;;;;;2.33;1.10;;;;;;;16.06;91.33;102259.38;1031231;28;20043;-78
2022/07/11 00:38:31;;;;;;;1.88;0.90;;;;;;;16.08;90.65;102257.28;1031331;28;20065;-78
2022/07/11 00:39:03;;;;;;;3.15;1.00;;;;;;;16.08;90.86;102257.28;1031051;28;20684;-78
2022/07/11 00:39:34;;;;;;;1.55;1.05;;;;;;;16.10;91.23;102255.22;1031040;28;20409;-78
2022/07/11 00:40:06;;;;;;;1.92;0.90;;;;;;;16.05;90.89;102252.34;1031287;28;20436;-78
2022/07/11 00:40:38;;;;;;;5.53;1.05;;;;;;;16.00;90.95;102250.31;1026965;28;20051;-77
2022/07/11 00:41:10;;;;;;;2.67;0.90;;;;;;;15.99;90.84;102258.59;1031661;28;20094;-78
2022/07/11 00:41:42;;;;;;;1.73;0.80;;;;;;;16.00;91.22;102260.25;1035389;28;20041;-78
2022/07/11 00:42:17;;;;;;;2.42;1.17;;;;;;;16.05;90.84;102257.72;1031452;28;20045;-78
2022/07/11 00:42:49;;;;;;;0.65;0.65;;;;;;;16.12;90.74;102258.50;1030208;28;20050;-77
2022/07/11 00:43:30;;;;;;;1.40;1.00;;;;;;;16.02;90.26;102253.63;1027101;28;20049;-78
2022/07/11 00:44:01;;;;;;;1.27;1.10;;;;;;;16.02;90.86;102258.16;1029375;28;20535;-78
2022/07/11 00:44:35;;;;;;;3.00;0.73;;;;;;;15.99;90.98;102255.91;1023266;29;20054;-78
2022/07/11 00:45:07;;;;;;;3.03;1.55;;;;;;;15.97;91.23;102261.50;1023449;29;20051;-78
2022/07/11 00:45:38;;;;;;;3.63;1.60;;;;;;;15.92;91.31;102257.84;1023962;28;20043;-78
2022/07/11 00:46:10;;;;;;;1.58;0.80;;;;;;;15.96;91.21;102257.19;1028424;28;20054;-78
2022/07/11 00:46:42;;;;;;;2.53;0.90;;;;;;;15.99;91.59;102253.22;1035431;28;20046;-78
2022/07/11 00:47:14;;;;;;;2.42;1.52;;;;;;;16.00;92.09;102260.25;1031054;28;20571;-78
2022/07/11 00:47:46;;;;;;;2.90;0.80;;;;;;;16.00;91.60;102260.25;1026377;28;20042;-77
2022/07/11 00:48:17;;;;;;;1.65;0.70;;;;;;;16.02;91.61;102260.84;1023491;29;20040;-78
2022/07/11 00:48:49;;;;;;;1.33;0.80;;;;;;;15.97;91.51;102258.81;1027384;28;20413;-77
2022/07/11 00:49:21;;;;;;;3.90;1.30;;;;;;;15.94;91.38;102258.44;1031164;28;20053;-77
2022/07/11 00:49:53;;;;;;;4.32;1.73;;;;;;;15.96;90.92;102259.03;1035359;28;20041;-77
2022/07/11 00:50:25;;;;;;;2.85;0.90;;;;;;;15.94;91.32;102255.75;1034645;28;20484;-78
2022/07/11 00:50:57;;;;;;;0.93;0.90;;;;;;;15.94;91.19;102256.56;1027109;28;20039;-78
2022/07/11 00:51:30;;;;;;;2.78;0.85;;;;;;;15.94;91.28;102255.75;1027246;28;20045;-78
2022/07/11 00:52:02;;;;;;;1.83;0.70;;;;;;;15.97;91.11;102260.69;1025688;28;20047;-78
2022/07/11 00:52:34;;;;;;;1.90;0.68;;;;;;;15.96;91.29;102262.56;1031415;28;20050;-77
2022/07/11 00:53:06;;;;;;;3.78;0.90;;;;;;;15.94;91.55;102256.56;1035003;28;20049;-77
2022/07/11 00:53:38;;;;;;;1.55;0.80;;;;;;;15.91;91.13;102256.19;1035336;28;20054;-78
2022/07/11 00:54:11;;;;;;;2.08;0.88;;;;;;;15.93;91.94;102252.25;1035289;28;20085;-77
2022/07/11 00:54:44;;;;;;;1.60;0.90;;;;;;;15.97;91.89;102255.31;1035141;28;20041;-78
2022/07/11 00:55:16;;;;;;;2.88;0.75;;;;;;;15.91;92.04;102258.88;1035054;28;20412;-78
2022/07/11 00:55:49;;;;;;;3.10;0.80;;;;;;;15.98;91.92;102252.41;1035298;28;20052;-78
2022/07/11 00:56:24;;;;;;;3.00;0.90;;;;;;;16.02;91.80;102258.16;1034313;28;20034;-77
2022/07/11 00:56:57;;;;;;;3.22;0.95;;;;;;;15.91;91.52;102261.56;1031074;28;20113;-78
2022/07/11 00:57:28;;;;;;;2.42;1.00;;;;;;;15.93;91.73;102259.47;1033822;28;20782;-78
2022/07/11 00:58:00;;;;;;;1.63;0.90;;;;;;;15.94;92.24;102255.75;1035308;28;20058;-78
2022/07/11 00:58:31;;;;;;;4.68;1.27;;;;;;;15.91;92.01;102261.56;1035077;28;20088;-78
2022/07/11 00:59:03;;;;;;;2.63;1.30;;;;;;;15.88;92.34;102264.66;1030226;28;20066;-77
2022/07/11 00:59:35;;;;;;;1.95;0.93;;;;;;;15.88;92.44;102253.91;1031470;28;20050;-78
2022/07/11 01:00:07;;;;;;;0.90;0.63;;;;;;;15.87;92.47;102250.41;1030819;28;20090;-78
2022/07/11 01:00:40;;;;;;;2.08;1.00;;;;;;;15.93;92.75;102259.47;1031649;28;20042;-78
2022/07/11 01:01:11;;;;;;;3.55;1.00;;;;;;;15.96;92.92;102259.03;1035445;28;20054;-78
2022/07/11 01:01:44;;;;;;;1.35;0.95;;;;;;;15.96;92.50;102259.03;1035964;28;20049;-78
2022/07/11 01:02:18;;;;;;;2.65;1.17;;;;;;;16.01;92.68;102256.53;1035536;28;20046;-78
2022/07/11 01:02:50;;;;;;;3.30;0.90;;;;;;;15.93;92.30;102254.09;1035102;28;20065;-78
2022/07/11 01:03:22;;;;;;;2.60;0.82;;;;;;;15.88;92.45;102252.03;1031950;28;20057;-78
2022/07/11 01:03:55;;;;;;;5.32;1.55;;;;;;;15.94;92.01;102253.06;1031510;28;20062;-78
2022/07/11 01:04:26;;;;;;;9.40;1.15;;;;;;;15.89;92.15;102256.41;1031782;28;20039;-78
2022/07/11 01:04:58;;;;;;;4.38;1.20;;;;;;;15.91;92.24;102251.63;1032307;28;20042;-78
2022/07/11 01:05:30;;;;;;;2.95;0.85;;;;;;;15.91;92.37;102250.81;1031871;28;20514;-78
2022/07/11 01:06:02;;;;;;;3.13;1.00;;;;;;;15.87;92.38;102250.41;1028007;28;20397;-77
2022/07/11 01:06:33;;;;;;;1.30;0.85;;;;;;;15.88;92.11;102256.59;1028007;28;20043;-78
2022/07/11 01:07:05;;;;;;;7.38;1.20;;;;;;;15.90;92.07;102250.00;1028525;28;20042;-78
2022/07/11 01:07:38;;;;;;;7.63;1.15;;;;;;;15.92;92.38;102258.66;1031829;28;20046;-77
2022/07/11 01:08:09;;;;;;;11.18;2.97;;;;;;;15.90;92.68;102249.16;1032019;28;20046;-78
2022/07/11 01:08:41;;;;;;;3.50;1.30;;;;;;;15.83;92.35;102249.19;1032036;28;20117;-77
2022/07/11 01:09:13;;;;;;;6.47;1.02;;;;;;;15.84;93.06;102250.00;1031644;28;20113;-77
2022/07/11 01:09:44;;;;;;;5.07;0.90;;;;;;;15.83;92.96;102246.50;1032484;28;20579;-78
2022/07/11 01:10:16;;;;;;;5.57;1.35;;;;;;;15.81;93.34;102248.59;1032168;28;20046;-78
2022/07/11 01:10:48;;;;;;;7.07;1.48;;;;;;;15.76;93.24;102249.22;1031291;28;20046;-78
2022/07/11 01:11:20;;;;;;;1.88;0.68;;;;;;;15.80;93.24;102259.53;1028357;28;20046;-77
2022/07/11 01:11:51;;;;;;;3.08;0.90;;;;;;;15.72;94.17;102252.56;1032821;28;20059;-78
2022/07/11 01:12:23;;;;;;;1.50;0.80;;;;;;;15.68;94.16;102257.56;1035680;28;20439;-77
2022/07/11 01:12:55;;;;;;;2.75;0.90;;;;;;;15.76;93.53;102251.94;1031685;28;20106;-78
2022/07/11 01:13:26;;;;;;;2.63;0.95;;;;;;;15.79;94.32;102252.53;1031946;28;20071;-78
2022/07/11 01:13:58;;;;;;;5.40;0.98;;;;;;;15.76;94.03;102249.22;1031913;28;20039;-77
2022/07/11 01:14:30;;;;;;;2.63;1.10;;;;;;;15.75;94.28;102252.97;1032488;28;20046;-77
2022/07/11 01:15:02;;;;;;;3.38;1.00;;;;;;;15.73;94.53;102249.66;1031929;28;20528;-78
2022/07/11 01:15:35;;;;;;;2.45;1.38;;;;;;;15.64;94.23;102256.34;1032216;28;20054;-78
2022/07/11 01:16:15;;;;;;;3.03;0.80;;;;;;;15.69;94.83;102258.38;1027790;28;20038;-78
2022/07/11 01:16:47;;;;;;;4.07;1.00;;;;;;;15.66;94.70;102248.91;1027979;28;20491;-77
2022/07/11 01:17:19;;;;;;;1.80;0.80;;;;;;;15.68;94.83;102256.75;1031548;28;20062;-78
2022/07/11 01:17:54;;;;;;;2.90;0.90;;;;;;;15.71;95.03;102259.81;1033546;28;20745;-78
2022/07/11 01:18:25;;;;;;;3.17;1.02;;;;;;;15.68;94.70;102262.94;1032175;28;20053;-78
2022/07/11 01:18:57;;;;;;;1.58;0.90;;;;;;;15.67;95.13;102255.91;1030943;28;20046;-78
2022/07/11 01:19:28;;;;;;;2.17;1.05;;;;;;;15.66;95.20;102256.94;1028608;28;20047;-78
2022/07/11 01:20:00;;;;;;;5.35;0.98;;;;;;;15.67;95.43;102260.47;1031965;28;20045;-78
2022/07/11 01:20:32;;;;;;;2.10;1.13;;;;;;;15.66;95.90;102265.00;1031917;28;20061;-78
2022/07/11 01:21:11;;;;;;;3.08;1.00;;;;;;;15.65;95.58;102262.53;1036033;28;20096;-78
2022/07/11 01:21:45;;;;;;;1.42;0.90;;;;;;;15.56;95.80;102256.53;1035700;28;20037;-78
2022/07/11 01:22:20;;;;;;;3.58;1.73;;;;;;;15.63;96.17;102254.69;1031720;28;20046;-78
2022/07/11 01:22:53;;;;;;;5.25;1.30;;;;;;;15.63;95.71;102260.06;1032300;28;20038;-78
2022/07/11 01:23:25;;;;;;;2.63;1.20;;;;;;;15.62;96.12;102258.44;1030516;28;20042;-78
2022/07/11 01:23:59;;;;;;;3.10;1.30;;;;;;;15.60;96.05;102254.28;1029421;28;20043;-78
2022/07/11 01:24:31;;;;;;;3.72;1.00;;;;;;;15.51;95.84;102256.38;1031941;28;20046;-78
2022/07/11 01:25:03;;;;;;;2.22;1.30;;;;;;;15.54;96.31;102250.56;1032512;28;20046;-78
2022/07/11 01:25:34;;;;;;;4.38;1.02;;;;;;;15.51;96.50;102256.38;1032059;28;20054;-78
2022/07/11 01:26:06;;;;;;;3.33;1.25;;;;;;;15.62;97.06;102261.13;1032007;28;20042;-78
2022/07/11 01:26:38;;;;;;;4.55;1.23;;;;;;;15.49;97.31;102252.25;1032207;28;20050;-78
2022/07/11 01:27:10;;;;;;;3.78;1.05;;;;;;;15.48;97.45;102256.78;1032103;28;20046;-78
2022/07/11 01:27:41;;;;;;;2.38;1.35;;;;;;;15.48;97.10;102254.13;1031811;28;20098;-78
2022/07/11 01:28:13;;;;;;;3.63;1.33;;;;;;;15.47;97.57;102265.91;1032697;28;20042;-77
2022/07/11 01:28:44;;;;;;;4.85;1.45;;;;;;;15.51;97.34;102255.53;1036174;28;20049;-78
2022/07/11 01:29:16;;;;;;;2.97;1.25;;;;;;;15.50;97.55;102254.72;1034797;28;20034;-78
2022/07/11 01:29:47;;;;;;;5.13;1.58;;;;;;;15.45;97.38;102257.22;1031816;28;20039;-78
2022/07/11 01:30:19;;;;;;;4.55;1.42;;;;;;;15.51;97.67;102271.66;1033773;28;20042;-78
2022/07/11 01:30:51;;;;;;;3.15;1.20;;;;;;;15.49;97.44;102263.00;1035806;28;20042;-78
2022/07/11 01:31:22;;;;;;;3.00;1.85;;;;;;;15.56;97.59;102266.47;1036197;28;20037;-78
2022/07/11 01:31:54;;;;;;;4.97;1.70;;;;;;;15.53;97.69;102261.53;1039416;28;20086;-77
2022/07/11 01:32:28;;;;;;;5.13;1.35;;;;;;;15.51;97.45;102255.53;1039760;28;20522;-78
2022/07/11 01:33:00;;;;;;;4.25;1.60;;;;;;;15.50;97.51;102254.72;1039986;28;20038;-78
2022/07/11 01:33:35;;;;;;;5.00;1.45;;;;;;;15.48;97.90;102255.97;1040047;28;20299;-78
2022/07/11 01:34:07;;;;;;;5.05;1.45;;;;;;;15.45;98.19;102257.22;1038899;28;20056;-77
2022/07/11 01:34:38;;;;;;;2.95;1.42;;;;;;;15.43;98.40;102254.75;1039776;28;20049;-78
2022/07/11 01:35:10;;;;;;;5.80;1.60;;;;;;;15.31;99.12;102251.06;1039985;28;20052;-78
2022/07/11 01:35:41;;;;;;;4.43;1.77;;;;;;;15.42;98.92;102250.44;1040177;28;20042;-78
2022/07/11 01:36:13;;;;;;;3.13;1.30;;;;;;;15.44;99.14;102250.22;1039421;28;20042;-77
2022/07/11 01:36:44;;;;;;;3.40;1.40;;;;;;;15.37;99.05;102249.44;1040058;28;20045;-77
2022/07/11 01:37:16;;;;;;;5.70;1.70;;;;;;;15.34;98.84;102249.81;1040018;28;20045;-77
2022/07/11 01:37:48;;;;;;;2.10;1.73;;;;;;;15.32;99.41;102249.22;1039311;28;20042;-77
2022/07/11 01:38:22;;;;;;;5.07;1.40;;;;;;;15.32;99.64;102259.94;1034953;28;20045;-78
2022/07/11 01:38:54;;;;;;;5.40;1.33;;;;;;;15.31;99.59;102250.25;1032105;28;20302;-78
2022/07/11 01:39:29;;;;;;;2.38;1.42;;;;;;;15.22;99.90;102255.03;1035404;28;20054;-78
2022/07/11 01:40:00;;;;;;;2.95;1.25;;;;;;;15.31;100.00;102252.94;1035887;28;20105;-77
2022/07/11 01:40:32;;;;;;;5.75;1.58;;;;;;;15.25;100.00;102251.13;1035545;28;20748;-77
2022/07/11 01:41:04;;;;;;;3.35;1.65;;;;;;;15.25;100.00;102257.31;1031835;28;20054;-77
2022/07/11 01:41:35;;;;;;;3.78;1.45;;;;;;;15.24;100.00;102252.16;1031898;28;20412;-78
2022/07/11 01:42:07;;;;;;;4.05;1.80;;;;;;;15.24;100.00;102254.84;1031142;28;20305;-78
2022/07/11 01:42:39;;;;;;;3.80;1.63;;;;;;;15.23;100.00;102253.19;1024567;28;20686;-78
2022/07/11 01:43:11;;;;;;;6.85;1.70;;;;;;;15.19;100.00;102247.44;1025626;28;20043;-78
2022/07/11 01:43:42;;;;;;;2.38;1.60;;;;;;;15.25;100.00;102256.47;1032238;28;20070;-78
2022/07/11 01:44:14;;;;;;;4.88;1.88;;;;;;;15.28;100.00;102256.06;1036367;28;20046;-77
2022/07/11 01:44:46;;;;;;;2.53;1.60;;;;;;;15.22;100.00;102251.53;1040253;28;20506;-77
2022/07/11 01:45:17;;;;;;;5.85;1.77;;;;;;;15.18;100.00;102250.31;1038605;28;20749;-77
2022/07/11 01:45:52;;;;;;;7.47;1.67;;;;;;;15.29;100.00;102257.69;1032101;28;20050;-77
2022/07/11 01:46:24;;;;;;;6.07;2.03;;;;;;;15.27;100.00;102254.41;1031930;28;20046;-77
2022/07/11 01:46:56;;;;;;;3.45;1.27;;;;;;;15.33;100.00;102253.56;1033316;28;20301;-77
2022/07/11 01:47:28;;;;;;;4.53;1.60;;;;;;;15.34;100.00;102249.81;1035600;28;20296;-77
2022/07/11 01:47:59;;;;;;;5.95;1.73;;;;;;;15.24;100.00;102255.66;1036218;28;20042;-77
2022/07/11 01:48:31;;;;;;;6.50;2.00;;;;;;;15.27;100.00;102251.72;1031973;28;20364;-77
2022/07/11 01:49:02;;;;;;;4.05;1.60;;;;;;;15.31;100.00;102255.63;1031813;28;20098;-77
2022/07/11 01:49:34;;;;;;;3.20;1.85;;;;;;;15.25;100.00;102251.13;1031394;28;20309;-77
2022/07/11 01:50:06;;;;;;;3.75;1.70;;;;;;;15.16;100.00;102250.53;1026722;28;20464;-77
2022/07/11 01:50:37;;;;;;;5.22;1.90;;;;;;;15.18;100.00;102253.00;1035658;28;20304;-78
2022/07/11 01:51:09;;;;;;;5.18;1.83;;;;;;;15.22;100.00;102248.84;1035838;28;20046;-77
2022/07/11 01:51:42;;;;;;;3.55;1.95;;;;;;;15.19;100.00;102246.59;1036000;28;20582;-78
2022/07/11 01:52:13;;;;;;;8.23;2.00;;;;;;;15.21;100.00;102255.25;1034934;28;20093;-77
2022/07/11 01:52:44;;;;;;;6.93;2.03;;;;;;;15.17;100.00;102254.03;1035762;28;20061;-78
2022/07/11 01:53:17;;;;;;;7.78;1.90;;;;;;;15.13;100.00;102249.09;1036038;28;20050;-77
2022/07/11 01:53:48;;;;;;;6.30;2.10;;;;;;;15.13;100.00;102251.78;1031704;28;20073;-77
2022/07/11 01:54:20;;;;;;;2.78;1.80;;;;;;;15.20;100.00;102245.56;1031217;28;20042;-78
2022/07/11 01:54:51;;;;;;;3.72;1.70;;;;;;;15.17;100.00;102249.50;1031879;28;20049;-78
2022/07/11 01:55:23;;;;;;;4.00;1.95;;;;;;;15.19;100.00;102251.97;1030109;28;20317;-78
2022/07/11 01:55:55;;;;;;;3.50;1.50;;;;;;;15.23;100.00;102250.50;1035808;28;20371;-78
2022/07/11 01:56:46;;;;;;;6.05;1.90;;;;;;;15.23;100.00;102245.97;1035602;28;20071;-78
2022/07/11 01:57:18;;;;;;;7.95;2.15;;;;;;;15.19;100.00;102246.59;1035998;28;20057;-78
2022/07/11 01:57:49;;;;;;;5.05;1.45;;;;;;;15.22;100.00;102256.91;1035454;28;20046;-78
2022/07/11 01:58:21;;;;;;;2.53;1.90;;;;;;;15.23;100.00;102258.56;1031797;28;20062;-78
2022/07/11 01:58:52;;;;;;;4.03;1.98;;;;;;;15.23;100.00;102250.50;1028087;28;20038;-78
2022/07/11 01:59:24;;;;;;;6.93;3.15;;;;;;;15.23;100.00;102247.81;1027692;28;20293;-78
2022/07/11 01:59:56;;;;;;;7.20;1.63;;;;;;;15.14;100.00;102249.94;1028255;28;20302;-78
2022/07/11 02:00:28;;;;;;;6.47;2.00;;;;;;;15.18;100.00;102239.59;1029664;28;20042;-78
2022/07/11 02:00:59;;;;;;;6.25;2.03;;;;;;;15.18;100.00;102253.00;1035135;28;20042;-78
2022/07/11 02:01:31;;;;;;;7.25;2.38;;;;;;;15.26;100.00;102253.59;1035574;28;20042;-78
2022/07/11 02:02:03;;;;;;;5.63;2.80;;;;;;;15.28;100.00;102245.31;1036430;28;20120;-78
2022/07/11 02:02:35;;;;;;;2.38;1.90;;;;;;;15.28;100.00;102239.94;1039332;28;20056;-78
2022/07/11 02:03:06;;;;;;;6.05;2.28;;;;;;;15.29;100.00;102242.41;1039912;28;20042;-78
2022/07/11 02:03:38;;;;;;;2.97;2.15;;;;;;;15.22;100.00;102247.00;1035550;28;20050;-77
2022/07/11 02:04:10;;;;;;;5.05;2.38;;;;;;;15.09;100.00;102242.50;1032032;28;20412;-78
2022/07/11 02:04:42;;;;;;;3.30;2.10;;;;;;;15.07;100.00;102249.13;1031135;28;20305;-78
2022/07/11 02:05:13;;;;;;;5.38;2.20;;;;;;;15.13;100.00;102248.28;1027986;28;20061;-78
2022/07/11 02:05:45;;;;;;;7.57;2.35;;;;;;;15.18;100.00;102247.63;1027951;28;20051;-78
2022/07/11 02:06:17;;;;;;;4.75;2.25;;;;;;;15.15;100.00;102248.88;1031334;28;20364;-78
2022/07/11 02:06:48;;;;;;;7.40;2.13;;;;;;;15.22;100.00;102246.16;1031602;28;20312;-77
2022/07/11 02:08:11;;;;;;;8.60;2.10;;;;;;;15.23;100.00;102245.97;1032102;28;20038;-78
2022/07/11 02:08:11;;;;;;;6.18;2.33;;;;;;;15.29;100.00;102244.28;1035797;28;20052;-78
2022/07/11 02:08:43;;;;;;;8.85;2.78;;;;;;;15.28;100.00;102248.81;1035805;28;20096;-78
2022/07/11 02:09:14;;;;;;;4.40;2.00;;;;;;;15.21;100.00;102250.72;1035248;28;20045;-78
2022/07/11 02:09:46;;;;;;;5.60;1.80;;;;;;;15.22;100.00;102249.69;1031493;28;20519;-78
2022/07/11 02:10:17;;;;;;;8.63;2.60;;;;;;;15.15;100.00;102252.41;1031295;28;20046;-78
2022/07/11 02:10:51;;;;;;;6.45;2.28;;;;;;;15.21;100.00;102245.34;1027802;28;20485;-78
2022/07/11 02:11:23;;;;;;;10.18;2.47;;;;;;;15.20;100.00;102253.63;1025202;28;20043;-78
2022/07/11 02:11:55;;;;;;;6.95;2.20;;;;;;;15.11;100.00;102245.81;1031685;28;20531;-78
2022/07/11 02:12:26;;;;;;;5.10;2.00;;;;;;;15.11;100.00;102248.50;1031620;28;20507;-78
2022/07/11 02:12:59;;;;;;;6.07;1.98;;;;;;;15.08;100.00;102245.41;1032093;28;20050;-78
2022/07/11 02:13:30;;;;;;;2.72;1.95;;;;;;;15.09;100.00;102242.50;1031227;28;20528;-78
2022/07/11 02:14:02;;;;;;;5.43;2.13;;;;;;;15.08;100.00;102248.91;1027493;28;20042;-78
2022/07/11 02:14:34;;;;;;;2.95;1.67;;;;;;;15.12;100.00;102244.78;1027877;28;20053;-77
2022/07/11 02:15:06;;;;;;;5.57;2.53;;;;;;;15.13;100.00;102243.72;1028120;28;20045;-78
2022/07/11 02:15:38;;;;;;;6.47;2.25;;;;;;;15.13;100.00;102248.28;1032104;28;20085;-78
2022/07/11 02:16:10;;;;;;;4.97;2.05;;;;;;;15.11;100.00;102245.81;1035553;28;20658;-78
2022/07/11 02:16:41;;;;;;;5.05;2.47;;;;;;;15.12;100.00;102239.41;1035788;28;20438;-78
2022/07/11 02:17:13;;;;;;;5.65;2.35;;;;;;;15.09;100.00;102241.69;1034737;28;20046;-78
2022/07/11 02:17:46;;;;;;;5.00;2.33;;;;;;;15.15;100.00;102235.47;1031665;28;20069;-77
2022/07/11 02:18:19;;;;;;;5.05;2.40;;;;;;;15.15;100.00;102241.66;1027983;28;20043;-78
2022/07/11 02:18:50;;;;;;;4.70;2.40;;;;;;;15.15;100.00;102247.03;1031627;28;20050;-78
2022/07/11 02:19:23;;;;;;;6.35;2.38;;;;;;;15.15;100.00;102238.97;1028232;28;20051;-78
2022/07/11 02:19:54;;;;;;;3.38;2.10;;;;;;;15.19;100.00;102241.22;1028555;28;20050;-78
2022/07/11 02:20:26;;;;;;;5.78;2.90;;;;;;;15.14;100.00;102245.38;1031141;28;20049;-78
2022/07/11 02:20:58;;;;;;;3.78;2.33;;;;;;;15.17;100.00;102238.75;1028249;28;20071;-78
2022/07/11 02:21:29;;;;;;;5.53;2.22;;;;;;;15.18;100.00;102247.63;1032256;28;20049;-78
2022/07/11 02:22:05;;;;;;;5.95;2.63;;;;;;;15.22;100.00;102246.16;1031823;28;20289;-78
2022/07/11 02:22:37;;;;;;;7.72;2.90;;;;;;;15.17;100.00;102251.34;1030181;28;20081;-78
2022/07/11 02:23:09;;;;;;;3.75;2.00;;;;;;;15.13;100.00;102246.41;1030752;28;20401;-78
2022/07/11 02:23:41;;;;;;;6.50;1.88;;;;;;;15.11;100.00;102244.97;1032782;28;20051;-78
2022/07/11 02:24:13;;;;;;;6.22;2.00;;;;;;;15.17;100.00;102244.13;1035767;28;20091;-78
2022/07/11 02:24:45;;;;;;;5.82;2.35;;;;;;;15.11;100.00;102242.31;1035240;28;20049;-78
2022/07/11 02:25:17;;;;;;;5.18;2.55;;;;;;;15.11;100.00;102245.81;1031447;28;20413;-78
2022/07/11 02:25:48;;;;;;;8.77;2.25;;;;;;;15.14;100.00;102237.34;1037395;28;20431;-78
2022/07/11 02:26:20;;;;;;;4.32;2.38;;;;;;;15.06;100.00;102252.81;1039853;28;20089;-78
2022/07/11 02:26:51;;;;;;;5.40;2.30;;;;;;;15.10;100.00;102249.53;1039994;28;20041;-78
2022/07/11 02:27:23;;;;;;;9.90;2.47;;;;;;;15.15;100.00;102249.72;1039317;28;20037;-78
2022/07/11 02:27:55;;;;;;;6.63;3.67;;;;;;;15.15;100.00;102243.53;1035752;28;20426;-78
2022/07/11 02:28:26;;;;;;;6.25;1.83;;;;;;;15.06;100.00;102242.09;1031350;28;20050;-78
2022/07/11 02:28:58;;;;;;;10.65;2.40;;;;;;;15.21;100.00;102245.34;1028310;28;20405;-78